Doddington, United Kingdom
Current Conditions -  °F | °C
As of 12:58 PM on Friday 24 Oct 2014 (Local Time) from EGUN Reporting Station
Overcast Overcast  
Wind Chill: 62°   Ceiling: 2100
Heat Index: 62°   Visibility: 6mi
Dew Point: 62°   Wind: 13mph
Humidity: 100%   Direction: 220°SW
Pressure: 29.92"   Gusts: NA
Location:  52.5°N, 0.06°E
Report Text: EGUN 241158Z AUTO 22011KT 9999 OVC021 17/17 A2992 RMK AO2 SLP135 T01680168 10176 20134 57009 $
Loading
Personal Weather Stations






























Interactive Weather Map New forecast layout! Learn more

10-Day Weather Forecast

Advertisements
Track Severe Weather on mobile